Time;durP1;ratioP1;P1;durP2;ratioP2;P2;SDS_P1;SDS_P2;PMS_P1;PMS_P2;Temp;Humidity;BMP_temperature;BMP_pressure;BME280_temperature;BME280_humidity;BME280_pressure;Samples;Min_cycle;Max_cycle;Signal;HPM_P1;HPM_P2
2022/01/15 00:01:20;;;;;;;12.38;7.70;;;;;;;;;;5090436;28;20118;-59
2022/01/15 00:03:46;;;;;;;12.13;6.97;;;;;;;;;;5108514;28;20123;-59
2022/01/15 00:06:12;;;;;;;11.40;7.32;;;;;;;;;;5108620;28;20075;-59
2022/01/15 00:08:38;;;;;;;12.82;6.85;;;;;;;;;;5108673;28;20609;-60
2022/01/15 00:11:04;;;;;;;9.85;6.05;;;;;;;;;;5108749;28;20142;-60
2022/01/15 00:13:31;;;;;;;13.32;7.13;;;;;;;;;;5109183;28;20045;-59
2022/01/15 00:16:10;;;;;;;11.20;7.05;;;;;;;;;;5109025;28;20413;-59
2022/01/15 00:19:04;;;;;;;13.10;7.32;;;;;;;;;;5108409;28;20072;-60
2022/01/15 00:21:30;;;;;;;12.57;7.47;;;;;;;;;;5108332;28;20061;-59
2022/01/15 00:23:56;;;;;;;11.57;6.85;;;;;;;;;;5129067;27;20114;-59
2022/01/15 00:26:22;;;;;;;11.38;7.45;;;;;;;;;;5131690;27;20043;-59
2022/01/15 00:28:48;;;;;;;11.82;6.75;;;;;;;;;;5127634;27;20508;-60
2022/01/15 00:31:14;;;;;;;12.82;6.80;;;;;;;;;;5125049;27;20493;-59
2022/01/15 00:33:40;;;;;;;11.88;7.20;;;;;;;;;;5129549;27;20041;-59
2022/01/15 00:36:06;;;;;;;12.68;7.00;;;;;;;;;;5131002;27;20071;-58
2022/01/15 00:38:32;;;;;;;10.85;6.47;;;;;;;;;;5131598;27;20035;-59
2022/01/15 00:40:58;;;;;;;13.90;7.78;;;;;;;;;;5131236;27;20051;-58
2022/01/15 00:43:25;;;;;;;12.23;6.53;;;;;;;;;;5131214;27;20493;-61
2022/01/15 00:45:52;;;;;;;10.77;6.38;;;;;;;;;;5128798;27;20070;-61
2022/01/15 00:48:18;;;;;;;15.02;7.82;;;;;;;;;;5130484;27;20088;-60
2022/01/15 00:50:44;;;;;;;12.65;7.28;;;;;;;;;;5131211;27;20041;-58
2022/01/15 00:53:10;;;;;;;12.70;7.45;;;;;;;;;;5137341;27;20031;-59
2022/01/15 00:55:36;;;;;;;10.13;6.80;;;;;;;;;;5131018;27;20138;-60
2022/01/15 00:58:02;;;;;;;10.40;6.78;;;;;;;;;;5133191;27;20257;-60
2022/01/15 01:00:28;;;;;;;14.02;7.15;;;;;;;;;;5129147;27;20036;-60
2022/01/15 01:02:54;;;;;;;15.65;7.82;;;;;;;;;;5133038;27;20111;-60
2022/01/15 01:05:21;;;;;;;10.52;6.85;;;;;;;;;;5132636;27;20043;-60
2022/01/15 01:07:47;;;;;;;11.93;7.32;;;;;;;;;;5131035;27;20027;-60
2022/01/15 01:23:40;;;;;;;10.45;6.43;;;;;;;;;;5134519;27;20114;-61
2022/01/15 01:26:11;;;;;;;10.70;6.90;;;;;;;;;;5134884;27;20059;-60
2022/01/15 01:28:42;;;;;;;9.50;6.53;;;;;;;;;;5116804;27;20118;-59
2022/01/15 01:33:42;;;;;;;11.02;6.88;;;;;;;;;;5133967;27;20074;-60
2022/01/15 01:36:17;;;;;;;9.50;5.90;;;;;;;;;;5134638;27;20039;-60
2022/01/15 01:38:56;;;;;;;11.02;6.30;;;;;;;;;;5135041;27;20476;-59
2022/01/15 01:41:23;;;;;;;10.45;6.65;;;;;;;;;;5134626;27;20071;-60
2022/01/15 01:43:58;;;;;;;8.77;5.88;;;;;;;;;;5134515;27;20055;-60
2022/01/15 01:48:51;;;;;;;9.10;5.85;;;;;;;;;;5134236;27;20485;-59
2022/01/15 01:51:29;;;;;;;9.18;5.53;;;;;;;;;;5134699;27;20031;-59
2022/01/15 01:53:56;;;;;;;8.13;5.70;;;;;;;;;;5134464;27;20043;-60
2022/01/15 01:56:22;;;;;;;7.78;5.35;;;;;;;;;;5134272;27;20092;-60
2022/01/15 01:58:48;;;;;;;9.23;5.30;;;;;;;;;;5134329;27;20103;-59
2022/01/15 02:01:14;;;;;;;9.23;5.70;;;;;;;;;;5134280;27;20035;-59
2022/01/15 02:03:40;;;;;;;10.90;5.88;;;;;;;;;;5133934;27;20023;-59
2022/01/15 02:06:07;;;;;;;11.70;6.07;;;;;;;;;;5134826;27;20378;-60
2022/01/15 02:08:34;;;;;;;8.73;5.53;;;;;;;;;;5134005;27;20584;-58
2022/01/15 02:11:03;;;;;;;9.63;6.30;;;;;;;;;;5133230;27;20111;-60
2022/01/15 02:13:29;;;;;;;11.50;6.43;;;;;;;;;;5134181;27;20050;-60
2022/01/15 02:15:57;;;;;;;9.07;5.82;;;;;;;;;;5134158;27;20520;-60
2022/01/15 02:18:23;;;;;;;11.20;6.15;;;;;;;;;;5134151;27;20095;-60
2022/01/15 02:23:32;;;;;;;10.30;6.10;;;;;;;;;;5134187;27;20462;-60
2022/01/15 02:23:52;;;;;;;11.98;6.85;;;;;;;;;;5133327;27;20495;-59
2022/01/15 02:26:18;;;;;;;11.63;6.55;;;;;;;;;;5121522;27;20054;-59
2022/01/15 02:29:00;;;;;;;9.93;5.95;;;;;;;;;;5133655;27;20043;-60
2022/01/15 02:31:28;;;;;;;11.73;5.82;;;;;;;;;;5132675;27;20047;-59
2022/01/15 02:33:55;;;;;;;10.18;6.00;;;;;;;;;;5133172;27;20477;-60
2022/01/15 02:36:23;;;;;;;11.07;6.15;;;;;;;;;;5130521;27;20035;-59
2022/01/15 02:38:49;;;;;;;11.38;6.50;;;;;;;;;;5134543;27;20396;-59
2022/01/15 02:41:16;;;;;;;12.45;6.13;;;;;;;;;;5133577;27;20389;-59
2022/01/15 02:43:42;;;;;;;11.27;6.00;;;;;;;;;;5133434;27;20047;-59
2022/01/15 02:48:56;;;;;;;10.50;5.72;;;;;;;;;;5131397;27;20484;-60
2022/01/15 02:51:24;;;;;;;11.02;6.07;;;;;;;;;;5134366;27;20043;-60
2022/01/15 02:53:55;;;;;;;10.70;5.57;;;;;;;;;;5136197;27;20035;-59
2022/01/15 02:56:22;;;;;;;9.43;6.18;;;;;;;;;;5131694;27;20496;-60
2022/01/15 02:58:48;;;;;;;10.52;5.93;;;;;;;;;;5133115;27;20035;-61
2022/01/15 03:01:14;;;;;;;7.82;5.30;;;;;;;;;;5133159;27;20130;-58
2022/01/15 03:03:40;;;;;;;9.55;5.68;;;;;;;;;;5133056;27;20038;-60
2022/01/15 03:06:13;;;;;;;7.50;4.93;;;;;;;;;;5132737;27;20039;-60
2022/01/15 03:08:39;;;;;;;;;;;;;;;;;;5109702;27;20035;-59
2022/01/15 03:11:06;;;;;;;8.65;4.65;;;;;;;;;;5132948;27;19919;-60
2022/01/15 03:13:32;;;;;;;7.78;4.60;;;;;;;;;;5133106;27;20046;-59
2022/01/15 03:15:58;;;;;;;7.85;4.45;;;;;;;;;;5132989;27;20031;-60
2022/01/15 03:18:24;;;;;;;6.82;4.55;;;;;;;;;;5132654;27;20765;-60
2022/01/15 03:20:50;;;;;;;8.40;4.78;;;;;;;;;;5132835;27;20035;-60
2022/01/15 03:23:16;;;;;;;7.28;4.20;;;;;;;;;;5132975;27;20092;-60
2022/01/15 03:25:43;;;;;;;6.80;4.45;;;;;;;;;;5132834;27;20390;-60
2022/01/15 03:28:09;;;;;;;6.75;4.38;;;;;;;;;;5132532;27;20394;-59
2022/01/15 03:30:35;;;;;;;6.70;4.88;;;;;;;;;;5132594;27;20061;-59
2022/01/15 03:33:01;;;;;;;7.57;4.78;;;;;;;;;;5132029;27;20393;-59
2022/01/15 03:35:27;;;;;;;6.00;4.13;;;;;;;;;;5132909;27;20043;-60
2022/01/15 03:37:53;;;;;;;6.75;4.32;;;;;;;;;;5132718;27;20035;-60
2022/01/15 03:40:19;;;;;;;5.68;3.80;;;;;;;;;;5132020;27;20042;-59
2022/01/15 03:42:45;;;;;;;5.90;3.65;;;;;;;;;;5132118;27;20035;-59
2022/01/15 03:45:12;;;;;;;5.03;3.33;;;;;;;;;;5132267;27;20043;-59
2022/01/15 03:47:39;;;;;;;5.18;3.35;;;;;;;;;;5132564;27;20091;-60
2022/01/15 03:50:05;;;;;;;5.07;3.22;;;;;;;;;;5131808;27;20042;-60
2022/01/15 03:52:31;;;;;;;4.40;3.08;;;;;;;;;;5132064;27;20079;-59
2022/01/15 03:54:57;;;;;;;4.70;2.80;;;;;;;;;;5132532;27;20401;-59
2022/01/15 03:57:23;;;;;;;3.10;2.30;;;;;;;;;;5131765;27;20172;-60
2022/01/15 03:59:49;;;;;;;3.95;2.25;;;;;;;;;;5132079;27;20062;-60
2022/01/15 04:02:15;;;;;;;3.42;2.65;;;;;;;;;;5131993;27;20039;-59
2022/01/15 04:04:42;;;;;;;5.20;2.53;;;;;;;;;;5132468;27;20469;-59
2022/01/15 04:07:08;;;;;;;3.38;2.50;;;;;;;;;;5132045;27;20046;-59
2022/01/15 04:09:34;;;;;;;4.45;2.50;;;;;;;;;;5114018;27;20112;-59
2022/01/15 04:12:00;;;;;;;3.55;2.58;;;;;;;;;;5131630;27;20046;-59
2022/01/15 04:14:26;;;;;;;3.47;2.58;;;;;;;;;;5131946;27;20047;-60
2022/01/15 04:16:52;;;;;;;3.72;2.67;;;;;;;;;;5131899;27;20362;-60
2022/01/15 04:19:18;;;;;;;4.65;2.67;;;;;;;;;;5131991;27;20565;-60
2022/01/15 04:21:44;;;;;;;3.72;2.38;;;;;;;;;;5131293;27;20104;-60
2022/01/15 04:24:10;;;;;;;4.10;2.28;;;;;;;;;;5131977;27;20113;-59
2022/01/15 04:26:36;;;;;;;3.65;2.30;;;;;;;;;;5129352;27;20590;-59
2022/01/15 04:29:04;;;;;;;3.58;2.40;;;;;;;;;;5131247;27;20039;-60
2022/01/15 04:31:51;;;;;;;4.60;2.45;;;;;;;;;;5130680;27;20046;-59
2022/01/15 04:34:27;;;;;;;3.47;2.20;;;;;;;;;;5131799;27;20047;-60
2022/01/15 04:37:22;;;;;;;3.22;2.30;;;;;;;;;;5136523;27;20043;-58
2022/01/15 04:39:45;;;;;;;2.58;2.05;;;;;;;;;;5131292;27;20027;-61
2022/01/15 04:42:12;;;;;;;2.38;1.90;;;;;;;;;;5130495;27;20035;-59
2022/01/15 04:44:38;;;;;;;3.38;2.42;;;;;;;;;;5130291;27;20047;-60
2022/01/15 04:47:04;;;;;;;3.65;2.70;;;;;;;;;;5131038;27;20110;-58
2022/01/15 04:49:31;;;;;;;4.32;2.58;;;;;;;;;;5131557;27;20042;-60
2022/01/15 04:51:57;;;;;;;3.17;2.33;;;;;;;;;;5131008;27;20045;-59
2022/01/15 04:54:23;;;;;;;4.35;2.83;;;;;;;;;;5132036;27;20039;-59
2022/01/15 04:56:49;;;;;;;3.10;2.40;;;;;;;;;;5130948;27;20126;-59
2022/01/15 04:59:15;;;;;;;3.55;2.22;;;;;;;;;;5130711;27;20122;-60
2022/01/15 05:01:41;;;;;;;2.53;2.00;;;;;;;;;;5130920;28;20035;-60
2022/01/15 05:04:07;;;;;;;3.58;2.22;;;;;;;;;;5130377;28;20038;-59
2022/01/15 05:06:34;;;;;;;2.53;1.80;;;;;;;;;;5131156;28;20035;-59
2022/01/15 05:09:05;;;;;;;5.78;2.03;;;;;;;;;;5131273;28;20051;-61
2022/01/15 05:11:44;;;;;;;2.33;1.88;;;;;;;;;;5112744;28;20050;-60
2022/01/15 05:14:11;;;;;;;4.63;2.30;;;;;;;;;;5130512;27;20074;-59
2022/01/15 05:16:37;;;;;;;3.40;2.10;;;;;;;;;;5130713;28;20039;-58
2022/01/15 05:19:03;;;;;;;2.90;2.00;;;;;;;;;;5130673;28;20039;-59
2022/01/15 05:21:29;;;;;;;3.33;1.90;;;;;;;;;;5130976;28;20043;-61
2022/01/15 05:23:55;;;;;;;3.17;2.35;;;;;;;;;;5130505;28;20046;-60
2022/01/15 05:26:21;;;;;;;2.45;1.92;;;;;;;;;;5130616;28;20485;-59
2022/01/15 05:28:47;;;;;;;2.95;2.15;;;;;;;;;;5130470;28;20046;-60
2022/01/15 05:31:14;;;;;;;3.08;2.40;;;;;;;;;;5130905;28;20050;-59
2022/01/15 05:33:40;;;;;;;5.57;2.67;;;;;;;;;;5113004;28;20042;-60
2022/01/15 05:36:06;;;;;;;5.07;2.50;;;;;;;;;;5130371;28;20393;-58
2022/01/15 05:38:32;;;;;;;3.15;2.45;;;;;;;;;;5130531;28;20041;-59
2022/01/15 05:40:58;;;;;;;3.20;2.45;;;;;;;;;;5130842;28;20110;-59
2022/01/15 05:43:24;;;;;;;3.22;2.50;;;;;;;;;;5130296;28;20059;-58
2022/01/15 05:45:50;;;;;;;3.80;2.80;;;;;;;;;;5130520;28;20043;-59
2022/01/15 05:48:16;;;;;;;3.35;2.40;;;;;;;;;;5130936;28;20401;-60
2022/01/15 05:50:42;;;;;;;3.85;2.80;;;;;;;;;;5130539;28;20528;-59
2022/01/15 05:53:08;;;;;;;3.28;2.60;;;;;;;;;;5130634;28;20035;-60
2022/01/15 05:55:34;;;;;;;4.55;3.22;;;;;;;;;;5129860;28;20046;-60
2022/01/15 05:58:00;;;;;;;4.28;2.95;;;;;;;;;;5130425;28;20061;-59
2022/01/15 06:00:26;;;;;;;3.55;2.63;;;;;;;;;;5130439;28;20031;-60
2022/01/15 06:02:52;;;;;;;5.40;2.75;;;;;;;;;;5130504;28;20816;-59
2022/01/15 06:05:18;;;;;;;3.63;2.70;;;;;;;;;;5131156;27;20035;-59
2022/01/15 06:07:44;;;;;;;7.50;3.58;;;;;;;;;;5134068;27;20043;-60
2022/01/15 06:10:11;;;;;;;3.65;2.58;;;;;;;;;;5134151;27;20043;-60
2022/01/15 06:12:42;;;;;;;4.20;2.88;;;;;;;;;;5132279;27;20083;-59
2022/01/15 06:15:09;;;;;;;3.67;2.63;;;;;;;;;;5133910;27;20062;-60
2022/01/15 06:17:35;;;;;;;4.75;3.05;;;;;;;;;;5131947;27;20171;-59
2022/01/15 06:20:01;;;;;;;4.00;3.10;;;;;;;;;;5120280;27;20063;-58
2022/01/15 06:22:27;;;;;;;4.25;3.03;;;;;;;;;;5134241;27;20027;-59
2022/01/15 06:24:53;;;;;;;4.07;3.05;;;;;;;;;;5133953;27;20035;-60
2022/01/15 06:27:19;;;;;;;3.85;2.88;;;;;;;;;;5135155;27;20097;-60
2022/01/15 06:29:46;;;;;;;3.78;2.67;;;;;;;;;;5132768;27;20039;-59
2022/01/15 06:32:12;;;;;;;4.05;2.70;;;;;;;;;;5134521;27;20393;-59
2022/01/15 06:34:38;;;;;;;4.18;2.90;;;;;;;;;;5133693;27;20084;-59
2022/01/15 06:37:05;;;;;;;5.38;3.45;;;;;;;;;;5117803;27;20039;-59
2022/01/15 06:39:31;;;;;;;4.60;3.40;;;;;;;;;;5132170;27;20038;-58
2022/01/15 06:41:57;;;;;;;4.32;3.20;;;;;;;;;;5131566;27;20063;-60
2022/01/15 06:44:23;;;;;;;3.70;2.83;;;;;;;;;;5133445;27;20043;-58
2022/01/15 06:46:49;;;;;;;3.10;2.30;;;;;;;;;;5119172;27;20057;-59
2022/01/15 06:49:15;;;;;;;3.60;2.40;;;;;;;;;;5132860;27;20083;-59
2022/01/15 06:51:41;;;;;;;3.97;2.75;;;;;;;;;;5132531;27;20465;-57
2022/01/15 06:54:07;;;;;;;3.20;2.42;;;;;;;;;;5133206;27;20397;-59
2022/01/15 06:56:33;;;;;;;4.25;3.00;;;;;;;;;;5133005;27;20042;-59
2022/01/15 06:58:59;;;;;;;3.40;2.40;;;;;;;;;;5133036;27;20038;-59
2022/01/15 07:01:25;;;;;;;3.25;2.33;;;;;;;;;;5132823;27;20039;-59
2022/01/15 07:03:51;;;;;;;3.40;2.53;;;;;;;;;;5133211;27;20031;-59
2022/01/15 07:06:17;;;;;;;3.83;2.45;;;;;;;;;;5132929;27;20054;-59
2022/01/15 07:08:43;;;;;;;2.88;2.38;;;;;;;;;;5132886;27;20073;-58
2022/01/15 07:11:09;;;;;;;3.08;2.60;;;;;;;;;;5132594;27;20076;-58
2022/01/15 07:13:35;;;;;;;4.40;3.30;;;;;;;;;;5133172;27;20511;-59
2022/01/15 07:16:01;;;;;;;3.65;2.55;;;;;;;;;;5132909;27;20082;-59
2022/01/15 07:18:28;;;;;;;6.03;3.10;;;;;;;;;;5132336;27;20046;-60
2022/01/15 07:20:54;;;;;;;5.82;2.80;;;;;;;;;;5132982;27;20035;-59
2022/01/15 07:23:20;;;;;;;4.72;2.95;;;;;;;;;;5132540;27;20035;-59
2022/01/15 07:25:47;;;;;;;4.63;3.20;;;;;;;;;;5132765;27;20497;-59
2022/01/15 07:28:13;;;;;;;4.57;2.88;;;;;;;;;;5132497;27;20039;-59
2022/01/15 07:30:39;;;;;;;6.47;3.47;;;;;;;;;;5132385;27;20047;-59
2022/01/15 07:33:05;;;;;;;4.70;3.47;;;;;;;;;;5132608;27;20042;-59
2022/01/15 07:35:31;;;;;;;6.10;3.70;;;;;;;;;;5132409;27;20053;-61
2022/01/15 07:37:57;;;;;;;4.97;3.70;;;;;;;;;;5132757;27;20050;-59
2022/01/15 07:40:23;;;;;;;4.95;3.17;;;;;;;;;;5132154;27;20043;-59
2022/01/15 07:42:50;;;;;;;6.47;3.80;;;;;;;;;;5132248;27;20450;-59
2022/01/15 07:45:17;;;;;;;5.07;3.65;;;;;;;;;;5131316;27;20047;-60
2022/01/15 07:47:43;;;;;;;4.72;3.70;;;;;;;;;;5131172;27;20043;-59
2022/01/15 07:50:23;;;;;;;5.75;4.13;;;;;;;;;;5130828;27;20131;-61
2022/01/15 07:52:49;;;;;;;5.10;3.58;;;;;;;;;;5129513;27;20027;-59
2022/01/15 07:55:15;;;;;;;5.95;4.00;;;;;;;;;;5130256;27;20047;-60
2022/01/15 07:57:43;;;;;;;5.57;3.60;;;;;;;;;;5130902;27;20042;-59
2022/01/15 08:00:10;;;;;;;5.50;3.35;;;;;;;;;;5132114;27;20039;-59
2022/01/15 08:02:36;;;;;;;5.57;3.67;;;;;;;;;;5116157;27;20043;-59
2022/01/15 08:05:02;;;;;;;6.50;4.30;;;;;;;;;;5132251;27;20035;-59
2022/01/15 08:07:28;;;;;;;9.55;5.25;;;;;;;;;;5131418;27;20330;-58
2022/01/15 08:09:54;;;;;;;8.43;5.10;;;;;;;;;;5127232;27;20154;-58
2022/01/15 08:12:22;;;;;;;8.00;5.45;;;;;;;;;;5128615;27;20434;-57
2022/01/15 08:14:49;;;;;;;9.50;5.07;;;;;;;;;;5129084;27;20051;-58
2022/01/15 08:17:15;;;;;;;8.07;5.22;;;;;;;;;;5131436;27;20167;-59
2022/01/15 08:19:41;;;;;;;7.22;4.45;;;;;;;;;;5131272;27;20095;-59
2022/01/15 08:22:07;;;;;;;7.70;4.65;;;;;;;;;;5128643;27;20118;-59
2022/01/15 08:24:33;;;;;;;8.77;5.70;;;;;;;;;;5131479;27;20160;-59
2022/01/15 08:26:59;;;;;;;9.15;6.03;;;;;;;;;;5126289;27;20035;-59
2022/01/15 08:29:25;;;;;;;8.48;5.53;;;;;;;;;;5129204;27;20518;-58
2022/01/15 08:31:51;;;;;;;10.90;5.97;;;;;;;;;;5129616;27;20031;-58
2022/01/15 08:34:17;;;;;;;9.30;5.47;;;;;;;;;;5130992;27;20034;-60
2022/01/15 08:36:43;;;;;;;9.02;5.50;;;;;;;;;;5132328;27;20470;-58
2022/01/15 08:39:09;;;;;;;8.98;5.57;;;;;;;;;;5129052;27;20114;-59
2022/01/15 08:41:36;;;;;;;9.43;5.65;;;;;;;;;;5103673;27;20039;-59
2022/01/15 08:44:02;;;;;;;10.48;5.82;;;;;;;;;;5130824;27;20051;-59
2022/01/15 08:46:28;;;;;;;9.52;5.90;;;;;;;;;;5131360;27;20027;-58
2022/01/15 08:48:55;;;;;;;8.73;5.30;;;;;;;;;;5130320;27;20039;-58
2022/01/15 08:51:21;;;;;;;9.85;5.45;;;;;;;;;;5131110;27;20043;-58
2022/01/15 08:53:47;;;;;;;9.50;5.63;;;;;;;;;;5130805;27;20485;-59
2022/01/15 08:56:13;;;;;;;9.20;6.25;;;;;;;;;;5131073;27;20570;-58
2022/01/15 08:58:39;;;;;;;11.48;6.93;;;;;;;;;;5129458;27;20046;-59
2022/01/15 09:01:07;;;;;;;11.63;6.90;;;;;;;;;;5125526;27;20032;-59
2022/01/15 09:03:36;;;;;;;12.68;7.35;;;;;;;;;;5130718;27;20046;-59
2022/01/15 09:06:02;;;;;;;13.45;6.70;;;;;;;;;;5130944;27;20046;-58
2022/01/15 09:08:29;;;;;;;12.15;7.03;;;;;;;;;;5128090;28;20031;-64
2022/01/15 09:10:55;;;;;;;10.98;6.78;;;;;;;;;;5126759;28;20073;-58
2022/01/15 09:13:21;;;;;;;13.85;7.45;;;;;;;;;;5130034;27;20036;-59
2022/01/15 09:15:47;;;;;;;13.35;7.57;;;;;;;;;;5130527;28;20050;-58
2022/01/15 09:18:15;;;;;;;12.68;7.38;;;;;;;;;;5130730;27;20042;-59
2022/01/15 09:20:41;;;;;;;12.35;7.22;;;;;;;;;;5128449;27;20039;-59
2022/01/15 09:23:08;;;;;;;14.10;8.10;;;;;;;;;;5129218;27;20031;-60
2022/01/15 09:25:34;;;;;;;12.05;7.82;;;;;;;;;;5112008;28;20049;-58
2022/01/15 09:30:45;;;;;;;12.15;7.18;;;;;;;;;;5129842;28;20035;-60
2022/01/15 09:33:11;;;;;;;12.93;7.25;;;;;;;;;;5129646;28;20043;-59
2022/01/15 09:35:37;;;;;;;12.45;7.70;;;;;;;;;;5127799;28;20386;-58
2022/01/15 09:38:04;;;;;;;11.80;7.40;;;;;;;;;;5113785;28;20050;-57
2022/01/15 09:40:30;;;;;;;12.15;7.35;;;;;;;;;;5116412;27;20038;-59
2022/01/15 09:42:56;;;;;;;11.48;7.32;;;;;;;;;;5125798;27;20039;-59
2022/01/15 09:45:23;;;;;;;13.85;7.25;;;;;;;;;;5120065;27;20105;-59
2022/01/15 09:47:54;;;;;;;12.60;7.35;;;;;;;;;;5117752;27;20385;-59
2022/01/15 09:50:20;;;;;;;12.63;7.70;;;;;;;;;;5117472;27;20035;-59
2022/01/15 09:52:46;;;;;;;15.07;7.80;;;;;;;;;;5133380;27;20046;-59
2022/01/15 09:55:13;;;;;;;13.85;7.55;;;;;;;;;;5133919;27;20145;-58
2022/01/15 09:57:40;;;;;;;10.82;7.22;;;;;;;;;;5134407;27;20458;-60
2022/01/15 10:00:11;;;;;;;10.27;6.72;;;;;;;;;;5134485;27;20038;-59
2022/01/15 10:02:40;;;;;;;10.65;6.55;;;;;;;;;;5134522;27;20035;-59
2022/01/15 10:05:06;;;;;;;8.88;5.28;;;;;;;;;;5134243;27;20038;-59
2022/01/15 10:07:32;;;;;;;9.60;5.80;;;;;;;;;;5134253;27;20039;-59
2022/01/15 10:10:12;;;;;;;9.00;5.78;;;;;;;;;;5116275;27;20442;-59
2022/01/15 10:12:41;;;;;;;8.18;5.60;;;;;;;;;;5134245;27;20091;-59
2022/01/15 10:15:08;;;;;;;9.32;5.95;;;;;;;;;;5134829;27;20035;-61
2022/01/15 10:17:35;;;;;;;8.75;5.78;;;;;;;;;;5115889;27;20047;-59
2022/01/15 10:20:03;;;;;;;10.18;6.95;;;;;;;;;;5121519;27;20035;-59
2022/01/15 10:22:32;;;;;;;9.68;6.68;;;;;;;;;;5134632;27;20135;-59
2022/01/15 10:24:59;;;;;;;11.73;6.75;;;;;;;;;;5134397;27;20489;-59
2022/01/15 10:27:26;;;;;;;9.73;6.35;;;;;;;;;;5134412;27;20047;-59
2022/01/15 10:30:02;;;;;;;12.57;7.18;;;;;;;;;;5134411;27;20039;-59
2022/01/15 10:32:29;;;;;;;9.30;6.78;;;;;;;;;;5134465;27;20088;-59
2022/01/15 10:34:56;;;;;;;12.38;8.18;;;;;;;;;;5134142;27;20478;-58
2022/01/15 10:37:23;;;;;;;11.18;7.78;;;;;;;;;;5134232;27;20454;-59
2022/01/15 10:40:00;;;;;;;11.88;7.35;;;;;;;;;;5134176;27;20048;-60
2022/01/15 10:42:27;;;;;;;11.85;8.05;;;;;;;;;;5134291;27;20078;-60
2022/01/15 10:44:54;;;;;;;12.32;8.25;;;;;;;;;;5133746;27;20054;-59
2022/01/15 10:47:21;;;;;;;11.93;7.72;;;;;;;;;;5134064;27;20513;-61
2022/01/15 10:49:48;;;;;;;13.15;8.40;;;;;;;;;;5133852;27;20054;-59
2022/01/15 10:52:21;;;;;;;13.60;8.50;;;;;;;;;;5132784;27;20047;-60
2022/01/15 10:54:50;;;;;;;14.43;9.60;;;;;;;;;;5133975;27;20047;-60
2022/01/15 10:57:18;;;;;;;12.48;8.20;;;;;;;;;;5133844;27;20047;-59
2022/01/15 10:59:55;;;;;;;14.23;8.82;;;;;;;;;;5133641;27;20477;-60
2022/01/15 11:02:21;;;;;;;13.10;8.65;;;;;;;;;;5133835;27;20050;-58
2022/01/15 11:04:47;;;;;;;13.70;8.43;;;;;;;;;;5133573;27;20039;-59
2022/01/15 11:07:17;;;;;;;14.57;8.75;;;;;;;;;;5133639;27;20134;-57
2022/01/15 11:09:43;;;;;;;12.55;9.15;;;;;;;;;;5133517;27;20051;-59
2022/01/15 11:12:10;;;;;;;13.63;8.35;;;;;;;;;;5133567;27;20039;-60
2022/01/15 11:14:36;;;;;;;15.68;8.98;;;;;;;;;;5133683;27;20126;-59
2022/01/15 11:17:03;;;;;;;16.48;9.00;;;;;;;;;;5133237;27;20050;-59
2022/01/15 11:19:30;;;;;;;13.02;9.30;;;;;;;;;;5133370;27;20035;-60
2022/01/15 11:21:57;;;;;;;13.73;8.75;;;;;;;;;;5133402;27;20034;-58
2022/01/15 11:24:24;;;;;;;13.68;8.32;;;;;;;;;;5133578;27;20126;-59
2022/01/15 11:26:57;;;;;;;13.70;8.68;;;;;;;;;;5133337;27;20046;-57
2022/01/15 11:29:23;;;;;;;14.98;8.95;;;;;;;;;;5133379;27;20484;-59
2022/01/15 11:31:55;;;;;;;15.40;8.98;;;;;;;;;;5133011;27;20035;-58
2022/01/15 11:34:21;;;;;;;14.40;8.97;;;;;;;;;;5133375;27;20058;-59
2022/01/15 11:36:47;;;;;;;14.40;8.23;;;;;;;;;;5132837;27;20100;-60
2022/01/15 11:39:15;;;;;;;15.00;9.50;;;;;;;;;;5132728;27;20031;-58
2022/01/15 11:41:45;;;;;;;16.38;9.40;;;;;;;;;;5136888;27;20053;-60
2022/01/15 11:44:14;;;;;;;14.77;9.35;;;;;;;;;;5133454;27;20480;-63
2022/01/15 11:46:42;;;;;;;13.68;8.48;;;;;;;;;;5133506;27;20053;-59
2022/01/15 11:49:27;;;;;;;14.15;9.15;;;;;;;;;;5132998;27;20039;-60
2022/01/15 11:51:57;;;;;;;13.15;8.60;;;;;;;;;;5132788;27;20038;-59
2022/01/15 11:54:23;;;;;;;15.20;9.73;;;;;;;;;;5132804;27;20366;-59
2022/01/15 11:56:49;;;;;;;16.27;9.98;;;;;;;;;;5132522;27;20179;-61
2022/01/15 11:59:24;;;;;;;14.20;9.35;;;;;;;;;;5132502;27;20499;-59
2022/01/15 12:01:51;;;;;;;23.48;12.40;;;;;;;;;;5132750;27;20397;-61
2022/01/15 12:04:27;;;;;;;18.80;10.35;;;;;;;;;;5132266;27;20038;-60
2022/01/15 12:07:02;;;;;;;18.60;10.35;;;;;;;;;;5132479;27;20493;-60
2022/01/15 12:09:32;;;;;;;18.25;10.57;;;;;;;;;;5132426;27;20117;-60
2022/01/15 12:11:58;;;;;;;20.13;11.52;;;;;;;;;;5132527;27;20035;-60
2022/01/15 12:14:43;;;;;;;17.77;9.93;;;;;;;;;;5132450;27;20084;-58
2022/01/15 12:17:24;;;;;;;18.13;10.95;;;;;;;;;;5132244;27;20035;-59
2022/01/15 12:19:50;;;;;;;21.48;12.02;;;;;;;;;;5132078;27;20057;-60
2022/01/15 12:22:35;;;;;;;21.35;12.40;;;;;;;;;;5132150;27;20027;-60
2022/01/15 12:25:03;;;;;;;20.38;10.73;;;;;;;;;;5132186;27;20362;-60
2022/01/15 12:27:30;;;;;;;21.85;12.43;;;;;;;;;;5126637;27;20039;-60
2022/01/15 12:30:16;;;;;;;22.65;12.45;;;;;;;;;;5131875;27;20031;-59
2022/01/15 12:32:44;;;;;;;21.63;12.20;;;;;;;;;;5132308;27;20064;-60
2022/01/15 12:35:15;;;;;;;19.30;11.20;;;;;;;;;;5132120;27;20078;-59
2022/01/15 12:37:51;;;;;;;21.30;11.88;;;;;;;;;;5132261;27;20047;-59
2022/01/15 12:40:17;;;;;;;21.30;11.98;;;;;;;;;;5131811;27;20404;-61
2022/01/15 12:42:44;;;;;;;19.45;11.73;;;;;;;;;;5132079;27;20393;-59
2022/01/15 12:45:17;;;;;;;22.23;12.15;;;;;;;;;;5116462;27;20035;-59
2022/01/15 12:47:46;;;;;;;20.92;12.32;;;;;;;;;;5132066;27;20091;-58
2022/01/15 12:50:13;;;;;;;21.10;11.63;;;;;;;;;;5131749;27;20035;-59
2022/01/15 12:52:39;;;;;;;22.65;11.52;;;;;;;;;;5132034;27;20046;-59
2022/01/15 12:55:05;;;;;;;23.45;11.40;;;;;;;;;;5131719;27;20039;-59
2022/01/15 12:57:38;;;;;;;20.95;12.13;;;;;;;;;;5131704;27;20156;-59
2022/01/15 13:00:08;;;;;;;22.77;11.98;;;;;;;;;;5131803;27;20608;-59
2022/01/15 13:02:34;;;;;;;17.98;10.77;;;;;;;;;;5113374;27;20046;-58
2022/01/15 13:05:00;;;;;;;21.23;11.85;;;;;;;;;;5131668;27;20031;-59
2022/01/15 13:07:26;;;;;;;21.73;11.05;;;;;;;;;;5131459;27;20039;-58
2022/01/15 13:09:52;;;;;;;19.92;12.00;;;;;;;;;;5131447;28;20160;-59
2022/01/15 13:12:18;;;;;;;20.65;12.00;;;;;;;;;;5131573;28;20401;-57
2022/01/15 13:14:45;;;;;;;19.38;10.38;;;;;;;;;;5114973;28;20042;-60
2022/01/15 13:17:31;;;;;;;24.67;12.20;;;;;;;;;;5134737;27;20370;-60
2022/01/15 13:19:57;;;;;;;19.65;11.25;;;;;;;;;;5135487;27;20058;-60
2022/01/15 13:22:23;;;;;;;20.70;12.02;;;;;;;;;;5135508;27;20193;-60
2022/01/15 13:25:05;;;;;;;21.60;12.38;;;;;;;;;;5135928;27;20042;-59
2022/01/15 13:27:33;;;;;;;20.13;11.60;;;;;;;;;;5135536;27;20052;-58
2022/01/15 13:29:59;;;;;;;20.17;11.90;;;;;;;;;;5135568;27;20122;-59
2022/01/15 13:32:25;;;;;;;19.10;11.00;;;;;;;;;;5135442;27;20507;-59
2022/01/15 13:34:51;;;;;;;20.58;12.05;;;;;;;;;;5135388;27;20027;-60
2022/01/15 13:37:19;;;;;;;24.67;13.70;;;;;;;;;;5135562;27;20366;-61
2022/01/15 13:39:45;;;;;;;23.92;13.38;;;;;;;;;;5135604;27;20080;-60
2022/01/15 13:42:15;;;;;;;30.17;16.48;;;;;;;;;;5135374;27;20087;-59
2022/01/15 13:44:41;;;;;;;25.85;14.25;;;;;;;;;;5134949;27;20058;-59
2022/01/15 13:47:08;;;;;;;26.85;16.02;;;;;;;;;;5135172;27;20043;-59
2022/01/15 13:53:05;;;;;;;27.83;14.75;;;;;;;;;;5116993;27;20043;-59
2022/01/15 13:55:28;;;;;;;25.65;13.75;;;;;;;;;;5091667;28;20112;-60
2022/01/15 13:58:14;;;;;;;27.95;14.13;;;;;;;;;;5092096;28;20039;-59
2022/01/15 14:00:41;;;;;;;28.30;15.20;;;;;;;;;;5091749;28;20393;-59
2022/01/15 14:03:07;;;;;;;25.92;14.77;;;;;;;;;;5074669;28;20182;-58
2022/01/15 14:05:34;;;;;;;31.60;15.40;;;;;;;;;;5091567;28;20442;-59
2022/01/15 14:08:09;;;;;;;26.67;14.05;;;;;;;;;;5091852;28;20040;-60
2022/01/15 14:10:37;;;;;;;28.00;14.45;;;;;;;;;;5091616;28;20036;-61
2022/01/15 14:13:05;;;;;;;22.85;13.15;;;;;;;;;;5091761;28;20595;-60
2022/01/15 14:15:35;;;;;;;31.00;14.20;;;;;;;;;;5091210;28;20115;-59
2022/01/15 14:18:07;;;;;;;25.08;14.15;;;;;;;;;;5091494;28;20048;-59
2022/01/15 14:20:51;;;;;;;25.23;14.60;;;;;;;;;;5091284;28;20189;-59
2022/01/15 14:23:28;;;;;;;23.58;14.10;;;;;;;;;;5091460;28;20047;-60
2022/01/15 14:25:54;;;;;;;24.98;14.05;;;;;;;;;;5091313;28;20040;-59
2022/01/15 14:28:23;;;;;;;23.42;14.23;;;;;;;;;;5091213;28;20036;-59
2022/01/15 14:30:59;;;;;;;26.30;15.32;;;;;;;;;;5108629;27;20126;-60
2022/01/15 14:33:25;;;;;;;20.48;12.38;;;;;;;;;;5134297;27;20050;-60
2022/01/15 14:35:51;;;;;;;23.52;13.18;;;;;;;;;;5116020;27;20047;-60
2022/01/15 14:38:17;;;;;;;26.23;13.52;;;;;;;;;;5134483;27;20046;-59
2022/01/15 14:40:43;;;;;;;25.85;13.52;;;;;;;;;;5134138;27;20030;-61
2022/01/15 14:43:09;;;;;;;22.80;12.30;;;;;;;;;;5134208;27;20454;-59
2022/01/15 14:45:36;;;;;;;23.15;12.73;;;;;;;;;;5133800;27;20463;-59
2022/01/15 14:48:03;;;;;;;21.90;13.43;;;;;;;;;;5133997;27;20327;-59
2022/01/15 14:50:29;;;;;;;26.70;14.77;;;;;;;;;;5115852;27;20067;-61
2022/01/15 14:52:56;;;;;;;23.35;14.13;;;;;;;;;;5133928;27;20165;-61
2022/01/15 14:55:22;;;;;;;26.45;15.30;;;;;;;;;;5133931;27;20575;-61
2022/01/15 14:57:48;;;;;;;29.73;19.42;;;;;;;;;;5133813;27;20114;-59
2022/01/15 15:00:14;;;;;;;30.38;18.48;;;;;;;;;;5133743;27;20074;-59
2022/01/15 15:02:40;;;;;;;28.55;18.02;;;;;;;;;;5133499;27;20046;-59
2022/01/15 15:05:07;;;;;;;27.88;17.90;;;;;;;;;;5133892;27;20042;-59